• Join FlightAware (Why Join?)
  • Login
  • US Flag 
02:28AM EDT


 

Airport Tracker/Info


-or-


 

Live Flight TrackerFlight Track Log ✈ DAL1116 ✈ 09-Apr-2013 ✈ KLAS - KDTW

Flight Track Log - Related Links

Times and Time Zones

All times are in EDT time to prevent confusion due to time zone crossing. See the DAL1116 flight status page for this flight to view local times or setup timezone preferences in your user account.

Time Position Orientation Groundspeed Altitude Reporting Facility
EDT Latitude Longitude Course Direction KTS MPH feet Rate Location/Type
07:36PM 36.1086 -115.1494 58° Northeast 176 203 3,200  Level Los Angeles Center
07:37PM 36.1314 -115.1047 58° Northeast 201 231 4,600 1,260 Climbing Los Angeles Center
07:38PM 36.1328 -115.0889 84° East 220 253 4,700 1,740 Climbing Los Angeles Center
07:38PM 36.1383 -115.0172 84° East 265 305 6,400 2,220 Climbing Los Angeles Center
07:39PM 36.1400 -114.9992 83° East 256 295 7,000 2,580 Climbing Los Angeles Center
07:39PM 36.1494 -114.9203 82° East 282 325 9,000 2,220 Climbing Los Angeles Center
07:40PM 36.1503 -114.9028 87° East 276 318 9,300 1,920 Climbing Los Angeles Center
07:41PM 36.1622 -114.7969 82° East 306 352 11,600 2,760 Climbing Los Angeles Center
07:42PM 36.1897 -114.6708 75° East 317 365 15,000 2,280 Climbing Los Angeles Center
07:43PM 36.1886 -114.5583 91° East 325 374 16,400 1,140 Climbing Los Angeles Center
07:44PM 36.1900 -114.4286 89° East 368 423 17,400 1,260 Climbing Los Angeles Center
07:45PM 36.1917 -114.2869 89° East 404 465 19,100 1,560 Climbing Los Angeles Center
07:46PM 36.2036 -114.1436 84° East 417 480 20,700 1,740 Climbing Los Angeles Center
07:47PM 36.2214 -113.9986 81° East 425 489 22,700 1,500 Climbing Los Angeles Center
07:48PM 36.2392 -113.8528 81° East 428 493 23,900 1,260 Climbing Los Angeles Center
07:49PM 36.2600 -113.6742 82° East 436 502 25,400 1,200 Climbing Los Angeles Center
07:50PM 36.2783 -113.5231 81° East 443 510 26,400 960 Climbing Los Angeles Center
07:51PM 36.3217 -113.3803 69° East 442 509 27,500 960 Climbing Los Angeles Center
07:52PM 36.3706 -113.2231 69° East 445 512 28,500 900 Climbing Los Angeles Center
07:53PM 36.4167 -113.0803 68° East 448 516 29,400 900 Climbing Los Angeles Center
07:54PM 36.4619 -112.9361 69° East 451 519 30,400 840 Climbing Los Angeles Center
07:55PM 36.5078 -112.7914 68° East 452 520 31,200 1,020 Climbing Los Angeles Center
07:56PM 36.5522 -112.6483 69° East 448 516 32,600 780 Climbing Los Angeles Center
07:57PM 36.6056 -112.4794 68° East 442 509 32,900 180 Climbing Los Angeles Center
07:58PM 36.6503 -112.3344 69° East 450 518 33,000  Climbing Los Angeles Center
07:59PM 36.6939 -112.1906 69° East 448 516 33,000  Level Los Angeles Center
08:00PM 36.7394 -112.0461 68° East 450 518 33,000  Level Los Angeles Center
08:01PM 36.7653 -111.9575 70° East 452 520 33,000  Level Denver Center
08:02PM 36.8106 -111.8131 69° East 451 519 33,000  Level Denver Center
08:03PM 36.8544 -111.6669 69° East 452 520 33,000  Level Denver Center
08:04PM 36.8994 -111.5217 69° East 451 519 33,000  Level Denver Center
08:05PM 36.9436 -111.3772 69° East 449 517 33,000  Level Denver Center
08:06PM 36.9822 -111.2336 71° East 443 510 33,000  Level Denver Center
08:07PM 37.0258 -111.0869 70° East 451 519 33,000  Level Denver Center
08:08PM 37.0783 -110.9103 70° East 452 520 33,000  Level Denver Center
08:09PM 37.1219 -110.7614 70° East 456 525 33,000  Level Denver Center
08:10PM 37.1639 -110.6131 70° East 454 522 33,000  Level Denver Center
08:11PM 37.2081 -110.4650 69° East 455 524 33,000  Level Denver Center
08:12PM 37.2506 -110.3142 70° East 459 528 33,000  Level Denver Center
08:13PM 37.2981 -110.1472 70° East 453 521 33,000  Level Denver Center
08:14PM 37.3392 -110.0044 70° East 453 521 33,000  Level Denver Center
08:15PM 37.3861 -109.8397 70° East 450 518 33,000  Level Denver Center
08:16PM 37.4250 -109.6972 71° East 450 518 33,000  Level Denver Center
08:17PM 37.4647 -109.5578 70° East 444 511 33,000  Level Denver Center
08:18PM 37.5100 -109.3947 71° East 443 510 33,000  Level Denver Center
08:19PM 37.5483 -109.2547 71° East 442 509 33,000  Level Denver Center
08:20PM 37.5939 -109.0886 71° East 449 517 33,000  Level Denver Center
08:21PM 37.6328 -108.9494 71° East 442 509 33,000  Level Denver Center
08:22PM 37.6778 -108.7817 71° East 449 517 33,000  Level Denver Center
08:23PM 37.7158 -108.6361 72° East 455 524 33,000  Level Denver Center
08:24PM 37.7542 -108.4933 71° East 451 519 33,000  Level Denver Center
08:25PM 37.7992 -108.3267 71° East 450 518 33,000  Level Denver Center
08:26PM 37.8372 -108.1839 71° East 448 516 33,000  Level Denver Center
08:28PM 37.8819 -108.0150 71° East 454 522 33,000  Level Denver Center
08:29PM 37.9189 -107.8711 72° East 451 519 33,000  Level Denver Center
08:30PM 37.9639 -107.7017 71° East 454 522 33,000  Level Denver Center
08:31PM 38.0008 -107.5581 72° East 451 519 33,000  Level Denver Center
08:32PM 38.0392 -107.4111 72° East 457 526 33,000  Level Denver Center
08:33PM 38.0847 -107.2308 72° East 459 528 33,000  Level Denver Center
08:34PM 38.1203 -107.0892 72° East 457 526 33,000  Level Denver Center
08:35PM 38.1603 -106.9342 72° East 462 532 33,000  Level Denver Center
08:36PM 38.2017 -106.7633 73° East 458 527 33,000  Level Denver Center
08:37PM 38.2392 -106.6144 72° East 465 535 33,000  Level Denver Center
08:38PM 38.2836 -106.4364 72° East 466 536 33,000  Level Denver Center
08:39PM 38.3289 -106.2483 73° East 466 536 33,000  Level Denver Center
08:40PM 38.3675 -106.0928 72° East 467 537 33,000  Level Denver Center
08:41PM 38.4053 -105.9389 73° East 472 543 33,000  Level Denver Center
08:42PM 38.4378 -105.8025 73° East 475 547 33,000 60 Level Denver Center
08:43PM 38.4817 -105.6164 73° East 467 537 33,200 480 Climbing Denver Center
08:44PM 38.5094 -105.4275 79° East 462 532 34,100 780 Climbing Denver Center
08:45PM 38.5228 -105.2636 84° East 460 529 34,900 420 Climbing Denver Center
08:46PM 38.5356 -105.1014 84° East 457 526 35,000  Climbing Denver Center
08:47PM 38.5489 -104.9328 84° East 469 540 35,000  Level Denver Center
08:48PM 38.5628 -104.7636 84° East 473 544 35,000  Level Denver Center
08:49PM 38.5750 -104.5964 85° East 471 542 35,000  Level Denver Center
08:50PM 38.5867 -104.4294 85° East 468 539 35,000  Level Denver Center
08:51PM 38.5997 -104.2619 84° East 470 541 35,000  Level Denver Center
08:52PM 38.6114 -104.0772 85° East 466 536 35,000  Level Denver Center
08:53PM 38.6233 -103.9169 85° East 469 540 35,000  Level Denver Center
08:54PM 38.6356 -103.7272 85° East 477 549 35,000  Level Denver Center
08:55PM 38.6458 -103.5650 85° East 476 548 35,000  Level Denver Center
08:57PM 38.6594 -103.3614 85° East 477 549 35,000  Level Denver Center
08:58PM 38.6706 -103.1914 85° East 477 549 35,000  Level Denver Center
08:59PM 38.6803 -103.0214 86° East 478 550 35,000  Level Denver Center
09:00PM 38.6908 -102.8500 85° East 478 550 35,000  Level Denver Center
09:01PM 38.7014 -102.6583 86° East 476 548 35,000  Level Denver Center
09:02PM 38.7106 -102.4961 86° East 476 548 35,000  Level Denver Center
09:03PM 38.7206 -102.3064 86° East 478 550 35,000  Level Denver Center
09:04PM 38.7300 -102.1433 86° East 479 551 35,000  Level Denver Center
09:05PM 38.7389 -101.9789 86° East 481 554 35,000  Level Denver Center
09:06PM 38.7483 -101.7892 86° East 478 550 35,000  Level Denver Center
09:07PM 38.7569 -101.6275 86° East 476 548 35,000  Level Denver Center
09:08PM 38.7658 -101.4381 86° East 478 550 35,000  Level Denver Center
09:09PM 38.7733 -101.2736 87° East 481 554 35,000  Level Denver Center
09:10PM 38.7808 -101.1089 87° East 483 556 35,000  Level Denver Center
09:11PM 38.7892 -100.9242 87° East 469 540 35,000  Level Denver Center
09:12PM 38.7986 -100.7653 86° East 467 537 35,000 -60 Level Denver Center
09:13PM 38.8494 -100.5772 71° East 501 577 34,900  Descending Denver Center
09:14PM 38.8975 -100.4153 69° East 505 581 35,000  Climbing Denver Center
09:15PM 38.9544 -100.2289 69° East 502 578 35,000  Level Denver Center
09:16PM 39.0036 -100.0589 70° East 509 586 35,000  Level Denver Center
09:17PM 39.0492 -99.9025 69° East 507 583 35,000  Level Denver Center
09:18PM 39.0897 -99.7656 69° East 509 586 35,000  Level Denver Center
09:19PM 39.1525 -99.5469 70° East 510 587 35,000  Level Denver Center
09:20PM 39.2011 -99.3783 70° East 514 592 35,000  Level Denver Center
09:21PM 39.2556 -99.1875 70° East 509 586 35,000  Level Denver Center
09:22PM 39.3067 -99.0297 67° East 502 578 35,000  Level Denver Center
09:23PM 39.3817 -98.8675 59° Northeast 492 566 35,000  Level Denver Center
09:24PM 39.4517 -98.7142 59° Northeast 495 570 35,000  Level Denver Center
09:25PM 39.5208 -98.5614 60° Northeast 493 567 35,000  Level Denver Center
09:26PM 39.5878 -98.4081 60° Northeast 490 564 35,000  Level Denver Center
09:28PM 39.6547 -98.2531 61° Northeast 492 566 35,000  Level Denver Center
09:29PM 39.7139 -98.0594 68° East 484 557 35,100  Climbing Minneapolis Center
09:30PM 39.7514 -97.8958 73° East 477 549 35,000 -60 Descending Minneapolis Center
09:31PM 39.7903 -97.7297 73° East 479 551 35,000  Level Minneapolis Center
09:32PM 39.8297 -97.5628 73° East 483 556 35,000  Level Minneapolis Center
09:33PM 39.8686 -97.3950 73° East 485 558 35,000  Level Minneapolis Center
09:34PM 39.9106 -97.2092 74° East 485 558 35,000  Level Minneapolis Center
09:35PM 39.9483 -97.0400 74° East 486 559 35,000  Level Minneapolis Center
09:36PM 39.9864 -96.8733 73° East 483 556 35,000  Level Minneapolis Center
09:37PM 40.0228 -96.7061 74° East 482 555 35,000  Level Minneapolis Center
09:38PM 40.0608 -96.5386 73° East 483 556 35,000  Level Minneapolis Center
09:39PM 40.0994 -96.3636 74° East 495 570 35,000  Level Minneapolis Center
09:40PM 40.1372 -96.1878 74° East 503 579 35,000  Level Minneapolis Center
09:41PM 40.1831 -95.9761 74° East 505 581 35,000  Level Minneapolis Center
09:42PM 40.2208 -95.8011 74° East 504 580 35,000  Level Minneapolis Center
09:43PM 40.2578 -95.6258 75° East 503 579 35,000  Level Minneapolis Center
09:44PM 40.2944 -95.4544 74° East 496 571 35,000  Level Minneapolis Center
09:45PM 40.3311 -95.2811 74° East 495 570 35,000  Level Minneapolis Center
09:46PM 40.3664 -95.1086 75° East 493 567 35,000  Level Minneapolis Center
09:47PM 40.4019 -94.9383 75° East 489 563 35,000  Level Minneapolis Center
09:48PM 40.4372 -94.7669 75° East 489 563 35,000  Level Minneapolis Center
09:49PM 40.4789 -94.5586 75° East 491 565 35,000  Level Minneapolis Center
09:50PM 40.5142 -94.3819 75° East 493 567 35,000  Level Minneapolis Center
09:51PM 40.5447 -94.2092 77° East 492 566 35,000  Level Minneapolis Center
09:52PM 40.5817 -94.0353 74° East 493 567 35,000  Level Minneapolis Center
09:53PM 40.6144 -93.8611 76° East 494 568 35,000  Level Minneapolis Center
09:54PM 40.6481 -93.6867 76° East 495 570 35,000  Level Minneapolis Center
09:55PM 40.6844 -93.5050 75° East 502 578 35,000  Level Minneapolis Center
09:56PM 40.7194 -93.3250 76° East 507 583 35,000  Level Minneapolis Center
09:57PM 40.7522 -93.1503 76° East 503 579 35,000  Level Minneapolis Center
09:58PM 40.7928 -92.9353 76° East 503 579 35,000  Level Minneapolis Center
09:59PM 40.8192 -92.7897 76° East 505 581 35,000  Level Chicago Center
10:00PM 40.8528 -92.6061 76° East 511 588 35,000  Level Chicago Center
10:01PM 40.8856 -92.4244 77° East 511 588 35,000  Level Chicago Center
10:02PM 40.9247 -92.2097 76° East 505 581 35,000  Level Chicago Center
10:03PM 40.9569 -92.0281 77° East 510 587 35,000  Level Chicago Center
10:04PM 40.9894 -91.8447 77° East 512 589 35,000  Level Chicago Center
10:05PM 41.0219 -91.6569 77° East 514 592 35,000  Level Chicago Center
10:06PM 41.0533 -91.4736 77° East 509 586 35,000  Level Chicago Center
10:07PM 41.0850 -91.2886 77° East 513 590 35,000  Level Chicago Center
10:08PM 41.1161 -91.1022 77° East 517 595 35,000  Level Chicago Center
10:09PM 41.1475 -90.9164 77° East 517 595 35,000  Level Chicago Center
10:10PM 41.1778 -90.7311 78° East 514 592 35,000  Level Chicago Center
10:11PM 41.2083 -90.5439 78° East 516 594 35,000  Level Chicago Center
10:12PM 41.2389 -90.3542 78° East 522 601 35,000  Level Chicago Center
10:13PM 41.2708 -90.1617 77° East 528 608 35,000  Level Chicago Center
10:15PM 41.3072 -89.9322 78° East 527 606 35,000  Level Chicago Center
10:16PM 41.3369 -89.7433 78° East 521 600 35,000  Level Chicago Center
10:17PM 41.3653 -89.5522 79° East 523 602 35,000  Level Chicago Center
10:18PM 41.3944 -89.3653 78° East 516 594 35,000  Level Chicago Center
10:19PM 41.4206 -89.1861 79° East 518 596 35,000  Level Chicago Center
10:20PM 41.4478 -88.9986 79° East 516 594 35,000  Level Chicago Center
10:21PM 41.4756 -88.8108 79° East 518 596 35,000  Level Chicago Center
10:22PM 41.5081 -88.5875 79° East 514 592 35,000  Level Chicago Center
10:23PM 41.5350 -88.3992 79° East 516 594 35,000  Level Chicago Center
10:24PM 41.5600 -88.2111 80° East 511 588 35,000  Level Chicago Center
10:25PM 41.5825 -88.0175 81° East 516 594 35,000  Level Chicago Center
10:26PM 41.6050 -87.8264 81° East 516 594 35,000  Level Chicago Center
10:27PM 41.6258 -87.6367 82° East 515 593 35,000 -180 Level Chicago Center
10:28PM 41.6467 -87.4483 82° East 514 592 34,700 -600 Descending Chicago Center
10:29PM 41.6686 -87.2614 81° East 512 589 33,800 -840 Descending Chicago Center
10:30PM 41.6889 -87.0736 82° East 513 590 33,000 -420 Descending Chicago Center
10:31PM 41.7414 -86.8972 68° East 525 604 33,000 -300 Level Chicago Center
10:32PM 41.8167 -86.7381 58° Northeast 512 589 32,400 -960 Descending Chicago Center
10:33PM 41.9047 -86.5450 58° Northeast 515 593 31,100 -1,200 Descending Chicago Center
10:34PM 41.9581 -86.3661 68° East 520 598 30,000 -1,080 Descending Chicago Center
10:35PM 41.9683 -86.1708 86° East 527 606 29,000 -960 Descending Chicago Center
10:36PM 41.9617 -85.9744 93° East 529 609 28,100 -960 Descending Chicago Center
10:37PM 41.9781 -85.7772 84° East 527 606 27,100 -1,020 Descending Chicago Center
10:38PM 41.9958 -85.5797 83° East 528 608 26,100 -1,080 Descending Chicago Center
10:39PM 42.0133 -85.3639 84° East 530 610 24,900 -1,800 Descending Chicago Center
10:40PM 42.0264 -85.2267 83° East 529 609 22,900 -3,180 Descending Cleveland Center
10:41PM 42.0428 -85.0267 84° East 512 589 19,200 -1,980 Descending Cleveland Center
10:42PM 42.0222 -84.8544 99° East 474 545 19,000 -360 Descending Cleveland Center
10:43PM 41.9825 -84.6869 108° East 463 533 18,500 -720 Descending Cleveland Center
10:44PM 41.9461 -84.5339 108° East 448 516 17,600 -1,320 Descending Cleveland Center
10:45PM 41.9075 -84.3836 109° East 434 499 15,900 -1,800 Descending Cleveland Center
10:46PM 41.8742 -84.2533 109° East 416 479 14,000 -1,740 Descending Cleveland Center
10:47PM 41.8431 -84.1150 107° East 403 464 12,500 -1,020 Descending Cleveland Center
10:48PM 41.8447 -83.9922 89° East 353 406 12,000 -720 Descending Cleveland Center
10:48PM 41.8856 -83.9442 41° Northeast 332 382 11,500 -1,260 Descending Cleveland Center
10:49PM 41.9058 -83.8978 60° Northeast 311 358 10,800 -1,680 Descending Cleveland Center
10:49PM 41.9342 -83.8547 48° Northeast 334 384 10,000 -1,620 Descending Cleveland Center
10:50PM 41.9628 -83.7975 56° Northeast 311 358 9,200 -1,620 Descending Cleveland Center
10:50PM 41.9664 -83.7417 85° East 326 375 8,400 -1,860 Descending Cleveland Center
10:51PM 41.9539 -83.6686 103° East 311 358 7,400 -1,800 Descending Cleveland Center
10:51PM 41.9528 -83.6294 92° East 307 353 6,600 -2,220 Descending Cleveland Center
10:52PM 41.9753 -83.5661 64° Northeast 300 345 5,200 -1,800 Descending Cleveland Center
10:52PM 41.9969 -83.5364 46° Northeast 270 311 4,800 -900 Descending Cleveland Center
10:53PM 42.0331 -83.5075 31° Northeast 253 291 4,300 -900 Descending Cleveland Center
10:53PM 42.0542 -83.4972 20° North 239 275 4,000 -1,260 Descending Cleveland Center
10:54PM 42.0925 -83.4653 32° Northeast 231 266 3,100 -1,140 Descending Cleveland Center
10:55PM 42.1372 -83.4311 30° Northeast 211 243 2,100 -900 Descending Cleveland Center
10:56PM 42.1797 -83.4019 27° Northeast 130 150 1,200 -780 Descending Cleveland Center
10:58PM 42.2000 -83.3500 48° Northeast  Level FlightAware Approximate
11:05PM 42.2124 -83.3534 48° Northeast  Level Estimated
11:06PM 42.2124 -83.3534 48° Northeast  Level Estimated